Time;durP1;ratioP1;P1;durP2;ratioP2;P2;SDS_P1;SDS_P2;PMS_P1;PMS_P2;Temp;Humidity;BMP_temperature;BMP_pressure;BME280_temperature;BME280_humidity;BME280_pressure;Samples;Min_cycle;Max_cycle;Signal;HPM_P1;HPM_P2
2022/03/07 05:02:29;;;;;;;14.83;13.43;;;0.60;89.70;;;;;;5022615;23;20530;-64
2022/03/07 05:04:56;;;;;;;12.43;11.33;;;0.60;91.10;;;;;;4976780;28;20486;-66
2022/03/07 05:07:22;;;;;;;13.87;12.70;;;0.50;91.70;;;;;;4976851;28;20455;-64
2022/03/07 05:09:49;;;;;;;13.90;12.60;;;0.50;92.50;;;;;;4977423;28;20458;-65
2022/03/07 05:12:16;;;;;;;13.50;12.20;;;0.40;93.00;;;;;;4976478;28;20996;-64
2022/03/07 05:14:42;;;;;;;13.47;12.10;;;0.50;93.40;;;;;;4976903;28;20464;-64
2022/03/07 05:17:09;;;;;;;12.70;11.57;;;0.50;93.40;;;;;;4976955;28;20812;-64
2022/03/07 05:19:37;;;;;;;14.20;12.80;;;0.50;93.70;;;;;;4980247;28;20457;-65
2022/03/07 05:22:05;;;;;;;13.40;12.10;;;0.50;93.90;;;;;;4986403;28;20483;-64
2022/03/07 05:24:31;;;;;;;13.60;12.40;;;0.60;94.10;;;;;;4987255;28;20503;-64
2022/03/07 05:26:58;;;;;;;16.40;11.93;;;0.50;94.00;;;;;;4986248;28;20460;-65
2022/03/07 05:29:25;;;;;;;13.10;11.90;;;0.50;94.10;;;;;;4984814;28;20455;-64
2022/03/07 05:31:51;;;;;;;12.33;11.23;;;0.50;94.50;;;;;;4984593;28;20476;-65
2022/03/07 05:34:18;;;;;;;12.40;11.20;;;0.40;94.60;;;;;;4985323;28;20460;-65
2022/03/07 05:36:46;;;;;;;12.13;11.07;;;0.50;94.70;;;;;;4979320;28;20459;-64
2022/03/07 05:39:13;;;;;;;13.00;11.83;;;0.50;95.00;;;;;;4976381;28;20936;-64
2022/03/07 05:41:39;;;;;;;13.30;12.00;;;0.30;95.70;;;;;;4976621;28;20474;-66
2022/03/07 05:44:06;;;;;;;12.13;10.93;;;0.20;96.20;;;;;;4976455;28;20455;-65
2022/03/07 05:46:33;;;;;;;11.33;10.30;;;0.20;96.70;;;;;;4976999;28;20466;-64
2022/03/07 05:49:00;;;;;;;12.27;11.17;;;0.20;97.00;;;;;;4976324;28;20465;-65
2022/03/07 05:51:27;;;;;;;10.80;9.97;;;0.20;97.60;;;;;;4976363;28;20483;-65
2022/03/07 05:53:55;;;;;;;11.93;10.83;;;0.20;97.70;;;;;;4976510;28;20467;-65
2022/03/07 05:56:22;;;;;;;12.03;10.90;;;0.10;98.40;;;;;;4976139;28;20456;-65
2022/03/07 05:58:49;;;;;;;12.20;11.00;;;0.20;98.60;;;;;;4976430;28;20466;-65
2022/03/07 06:01:16;;;;;;;11.90;10.80;;;0.20;98.80;;;;;;4976036;28;20485;-65
2022/03/07 06:03:42;;;;;;;12.77;11.43;;;0.10;99.40;;;;;;4976427;28;20461;-64
2022/03/07 06:06:09;;;;;;;13.03;11.83;;;0.10;99.80;;;;;;4976171;28;20459;-66
2022/03/07 06:08:36;;;;;;;12.03;10.87;;;0.00;99.90;;;;;;4976131;28;20462;-65
2022/03/07 06:11:04;;;;;;;12.37;11.17;;;0.00;99.90;;;;;;4976102;28;21049;-64
2022/03/07 06:13:31;;;;;;;10.80;9.90;;;-0.10;99.90;;;;;;4976060;28;20463;-65
2022/03/07 06:15:58;;;;;;;11.57;10.47;;;-0.10;99.90;;;;;;4976077;28;20456;-64
2022/03/07 06:18:25;;;;;;;11.07;10.17;;;-0.10;99.90;;;;;;4975890;28;20463;-66
2022/03/07 06:20:52;;;;;;;11.63;10.53;;;-0.10;99.90;;;;;;4976114;28;20486;-65
2022/03/07 06:23:19;;;;;;;11.47;10.57;;;-0.10;99.90;;;;;;4976041;28;20450;-65
2022/03/07 06:25:46;;;;;;;12.57;11.37;;;0.00;99.90;;;;;;4977289;28;20461;-65
2022/03/07 06:28:14;;;;;;;11.33;10.43;;;0.10;99.90;;;;;;4978394;28;20463;-65
2022/03/07 06:30:41;;;;;;;11.57;10.30;;;0.10;99.90;;;;;;4976779;28;20479;-65
2022/03/07 06:33:08;;;;;;;10.97;9.87;;;0.10;99.90;;;;;;4975726;28;20454;-66
2022/03/07 06:35:35;;;;;;;11.60;10.60;;;0.20;99.90;;;;;;4975321;28;20956;-65
2022/03/07 06:38:01;;;;;;;10.60;9.57;;;0.20;99.90;;;;;;4975807;28;20459;-65
2022/03/07 06:40:29;;;;;;;10.40;9.50;;;0.20;99.90;;;;;;4978504;28;20467;-65
2022/03/07 06:42:56;;;;;;;10.30;9.50;;;0.40;99.90;;;;;;4979739;28;20450;-64
2022/03/07 06:45:24;;;;;;;9.77;8.97;;;0.50;99.90;;;;;;4979821;28;20460;-65
2022/03/07 06:47:51;;;;;;;10.40;9.40;;;0.50;99.90;;;;;;4979556;28;20458;-65
2022/03/07 06:50:18;;;;;;;10.40;9.40;;;0.70;99.90;;;;;;4979588;28;20459;-65
2022/03/07 06:52:45;;;;;;;10.47;9.57;;;0.60;99.90;;;;;;4979508;28;20483;-65
2022/03/07 06:55:12;;;;;;;10.03;9.13;;;0.60;99.90;;;;;;4979465;28;20943;-65
2022/03/07 06:57:39;;;;;;;9.53;8.60;;;0.90;99.90;;;;;;4979495;28;20460;-65
2022/03/07 07:00:10;;;;;;;8.53;7.80;;;1.40;99.70;;;;;;4979344;28;20461;-67
2022/03/07 07:02:38;;;;;;;9.23;8.43;;;2.10;97.70;;;;;;4979262;28;20428;-64
2022/03/07 07:05:07;;;;;;;9.33;8.53;;;2.50;94.20;;;;;;4979429;28;20460;-65
2022/03/07 07:07:34;;;;;;;8.50;7.70;;;3.00;92.00;;;;;;4979803;28;20457;-65
2022/03/07 07:10:02;;;;;;;8.50;7.80;;;3.50;91.50;;;;;;4978671;28;20802;-65
2022/03/07 07:12:29;;;;;;;8.67;7.93;;;4.20;89.80;;;;;;4978763;28;20479;-65
2022/03/07 07:14:56;;;;;;;9.03;8.13;;;4.30;85.70;;;;;;4978693;28;20462;-66
2022/03/07 07:17:23;;;;;;;9.27;7.50;;;5.00;81.50;;;;;;4978605;28;20464;-66
2022/03/07 07:19:51;;;;;;;9.80;8.23;;;4.70;80.00;;;;;;4978629;28;20461;-66
2022/03/07 07:22:17;;;;;;;9.57;8.57;;;4.80;80.20;;;;;;4978512;28;20482;-66
2022/03/07 07:24:44;;;;;;;10.23;7.37;;;5.00;78.60;;;;;;4978759;28;20457;-64
2022/03/07 07:27:12;;;;;;;8.63;7.93;;;5.00;78.00;;;;;;4978710;28;20512;-65
2022/03/07 07:29:39;;;;;;;9.33;8.43;;;5.00;77.40;;;;;;4979043;28;20537;-66
2022/03/07 07:32:06;;;;;;;8.93;8.07;;;4.70;77.40;;;;;;4978502;28;20484;-65
2022/03/07 07:34:33;;;;;;;9.40;8.30;;;4.70;77.70;;;;;;4978486;28;20457;-66
2022/03/07 07:37:01;;;;;;;8.50;7.83;;;4.80;77.60;;;;;;4978226;28;20457;-65
2022/03/07 07:39:28;;;;;;;12.33;8.50;;;5.30;75.60;;;;;;4978807;28;20842;-65
2022/03/07 07:41:55;;;;;;;9.53;8.50;;;5.80;74.10;;;;;;4978295;28;20478;-68
2022/03/07 07:44:22;;;;;;;8.50;7.43;;;6.50;70.80;;;;;;4978307;28;20454;-65
2022/03/07 07:46:49;;;;;;;10.50;8.27;;;7.00;68.70;;;;;;4978515;28;20462;-65
2022/03/07 07:49:16;;;;;;;8.77;8.07;;;7.00;66.80;;;;;;4979454;28;20466;-67
2022/03/07 07:51:43;;;;;;;9.73;8.90;;;7.90;64.70;;;;;;4977393;28;20486;-66
2022/03/07 07:54:11;;;;;;;10.07;9.07;;;8.40;62.90;;;;;;4978882;28;20454;-66
2022/03/07 07:56:37;;;;;;;9.60;8.63;;;8.60;60.40;;;;;;4978790;28;20450;-65
2022/03/07 07:59:04;;;;;;;9.40;8.43;;;9.30;60.00;;;;;;4978992;28;20455;-66
2022/03/07 08:01:31;;;;;;;9.90;9.20;;;9.80;57.40;;;;;;4977844;28;20486;-66
2022/03/07 08:03:58;;;;;;;10.47;9.67;;;10.20;56.40;;;;;;4979179;28;20458;-65
2022/03/07 08:06:24;;;;;;;11.20;10.10;;;10.60;54.90;;;;;;4989016;28;20455;-65
2022/03/07 08:08:51;;;;;;;10.93;9.93;;;10.30;53.80;;;;;;4980872;28;20469;-66
2022/03/07 08:11:19;;;;;;;12.33;11.13;;;9.90;54.80;;;;;;4978660;28;20486;-65
2022/03/07 08:13:46;;;;;;;10.40;9.43;;;10.40;54.00;;;;;;4977800;28;20462;-66
2022/03/07 08:16:12;;;;;;;10.20;9.40;;;10.50;53.60;;;;;;4978548;28;20462;-66
2022/03/07 08:18:39;;;;;;;10.47;9.57;;;11.00;53.00;;;;;;4983934;28;20545;-65
2022/03/07 08:21:06;;;;;;;11.27;10.17;;;10.90;52.50;;;;;;4985127;28;20482;-65
2022/03/07 08:23:33;;;;;;;12.17;11.07;;;10.70;51.30;;;;;;4988305;28;20455;-65
2022/03/07 08:25:59;;;;;;;11.97;10.97;;;10.10;53.10;;;;;;4982945;28;20479;-65
2022/03/07 08:28:27;;;;;;;11.70;10.70;;;9.80;53.50;;;;;;4978542;28;20466;-66
2022/03/07 08:30:54;;;;;;;15.53;10.47;;;10.00;51.90;;;;;;4977567;28;20471;-65
2022/03/07 08:33:21;;;;;;;11.63;10.53;;;10.20;52.80;;;;;;4976983;28;21015;-66
2022/03/07 08:35:49;;;;;;;10.93;10.03;;;10.70;52.50;;;;;;4977071;28;20459;-66
2022/03/07 08:38:16;;;;;;;11.30;10.20;;;11.20;51.50;;;;;;4977210;28;20446;-65
2022/03/07 08:40:43;;;;;;;11.77;10.87;;;11.30;52.00;;;;;;4977068;28;20479;-65
2022/03/07 08:43:10;;;;;;;15.20;11.00;;;11.60;50.80;;;;;;4977191;28;20455;-65
2022/03/07 08:45:38;;;;;;;11.70;10.70;;;12.10;49.60;;;;;;4977238;28;20455;-65
2022/03/07 08:48:05;;;;;;;11.60;10.67;;;11.90;48.90;;;;;;4976915;28;20455;-65
2022/03/07 08:50:32;;;;;;;13.03;11.80;;;12.00;49.30;;;;;;4976777;28;20478;-65
2022/03/07 08:52:58;;;;;;;11.53;10.53;;;11.10;48.80;;;;;;4976407;28;20514;-65
2022/03/07 08:55:25;;;;;;;11.80;10.70;;;11.60;50.00;;;;;;4976633;28;20950;-66
2022/03/07 08:57:52;;;;;;;11.73;10.73;;;11.70;48.70;;;;;;4977668;28;20942;-65
2022/03/07 09:00:19;;;;;;;11.27;10.37;;;11.50;49.30;;;;;;4976521;28;20462;-64
2022/03/07 09:02:47;;;;;;;10.60;9.70;;;12.20;48.80;;;;;;4976460;28;20494;-64
2022/03/07 09:05:14;;;;;;;11.00;10.00;;;12.20;48.40;;;;;;4976161;28;20510;-64
2022/03/07 09:07:42;;;;;;;11.20;10.23;;;12.60;47.00;;;;;;4976088;28;20865;-65
2022/03/07 09:10:10;;;;;;;11.03;10.20;;;12.60;46.10;;;;;;4977445;28;20454;-64
2022/03/07 09:12:37;;;;;;;13.00;11.83;;;12.90;48.40;;;;;;4976473;28;20486;-65
2022/03/07 09:15:06;;;;;;;12.40;11.30;;;12.90;47.10;;;;;;4976425;28;20483;-64
2022/03/07 09:17:33;;;;;;;13.00;11.90;;;12.40;47.40;;;;;;4976368;28;20466;-65
2022/03/07 09:20:01;;;;;;;12.30;11.30;;;12.50;45.80;;;;;;4976725;28;20455;-65
2022/03/07 09:22:29;;;;;;;12.03;11.03;;;12.00;46.30;;;;;;4976619;28;20522;-64
2022/03/07 09:24:55;;;;;;;11.97;10.57;;;12.10;46.40;;;;;;4976496;28;20934;-64
2022/03/07 09:27:22;;;;;;;12.03;10.97;;;12.60;47.00;;;;;;4976225;28;20454;-65
2022/03/07 09:29:49;;;;;;;12.87;11.70;;;13.20;46.70;;;;;;4979889;28;20459;-64
2022/03/07 09:32:16;;;;;;;12.33;11.23;;;13.40;45.30;;;;;;4988423;28;20482;-64
2022/03/07 09:34:43;;;;;;;12.10;11.00;;;12.70;46.30;;;;;;4981557;28;20466;-65
2022/03/07 09:37:11;;;;;;;13.87;12.63;;;13.10;45.50;;;;;;4976509;28;20485;-64
2022/03/07 09:39:39;;;;;;;11.20;10.30;;;13.50;45.20;;;;;;4975858;28;20939;-64
2022/03/07 09:42:06;;;;;;;11.37;10.47;;;13.20;44.60;;;;;;4975874;28;20475;-65
2022/03/07 09:44:34;;;;;;;12.27;11.27;;;13.50;45.20;;;;;;4975784;28;20458;-65
2022/03/07 09:47:03;;;;;;;12.33;11.37;;;14.60;45.20;;;;;;4975926;28;20451;-65
2022/03/07 09:49:29;;;;;;;12.93;11.83;;;13.20;44.70;;;;;;4975963;28;20455;-64
2022/03/07 09:51:56;;;;;;;12.90;11.90;;;12.10;44.00;;;;;;4976380;28;20533;-65
2022/03/07 09:54:25;;;;;;;12.00;11.10;;;12.40;45.20;;;;;;4987130;28;20451;-66
2022/03/07 09:56:52;;;;;;;12.10;11.10;;;13.40;45.70;;;;;;4981992;28;20455;-65
2022/03/07 09:59:21;;;;;;;12.40;11.20;;;13.10;44.50;;;;;;4976643;28;20455;-64
2022/03/07 10:01:59;;;;;;;11.87;10.67;;;12.00;44.10;;;;;;4976033;28;20490;-64
2022/03/07 10:04:26;;;;;;;12.30;11.20;;;12.60;45.00;;;;;;4975591;28;20450;-64
2022/03/07 10:06:53;;;;;;;12.33;11.23;;;12.60;43.90;;;;;;4975302;28;20870;-65
2022/03/07 10:09:20;;;;;;;11.30;10.40;;;13.10;43.90;;;;;;4975674;28;20454;-65
2022/03/07 10:11:53;;;;;;;12.63;11.33;;;13.60;43.90;;;;;;4975113;28;20475;-65
2022/03/07 10:14:31;;;;;;;11.57;10.67;;;13.00;43.20;;;;;;4974812;28;20439;-64
2022/03/07 10:16:58;;;;;;;12.10;11.10;;;13.50;43.90;;;;;;4975676;28;20471;-65
2022/03/07 10:19:25;;;;;;;13.03;11.77;;;14.20;43.50;;;;;;4975284;28;20455;-65
2022/03/07 10:21:53;;;;;;;12.53;11.63;;;14.50;42.80;;;;;;4975091;28;20482;-64
2022/03/07 10:24:32;;;;;;;11.40;10.50;;;14.40;41.90;;;;;;4975385;28;20439;-64
2022/03/07 10:27:00;;;;;;;12.47;11.20;;;13.90;42.40;;;;;;4975343;28;20526;-65
2022/03/07 10:29:27;;;;;;;11.83;10.93;;;13.60;42.60;;;;;;4975511;28;20461;-64
2022/03/07 10:31:54;;;;;;;12.13;10.93;;;13.70;41.90;;;;;;4975584;28;20557;-64
2022/03/07 10:34:21;;;;;;;11.97;10.77;;;11.90;42.20;;;;;;4976315;28;20455;-64
2022/03/07 10:36:48;;;;;;;12.37;11.27;;;11.00;43.70;;;;;;4978818;28;20486;-64
2022/03/07 10:39:22;;;;;;;11.90;10.70;;;10.20;45.30;;;;;;4977240;28;20463;-64
2022/03/07 10:41:49;;;;;;;11.27;10.37;;;10.20;46.30;;;;;;4976045;28;20483;-64
2022/03/07 10:44:27;;;;;;;10.87;9.87;;;10.60;47.10;;;;;;4974968;28;20461;-64
2022/03/07 10:47:05;;;;;;;11.10;10.20;;;11.40;45.00;;;;;;4975064;28;20446;-64
2022/03/07 10:49:31;;;;;;;11.67;10.67;;;11.30;44.20;;;;;;4975677;28;20438;-65
2022/03/07 10:51:58;;;;;;;12.40;11.30;;;11.80;44.50;;;;;;4974878;28;20842;-65
2022/03/07 10:54:25;;;;;;;11.47;10.53;;;12.00;43.80;;;;;;4975589;28;20509;-64
2022/03/07 10:56:52;;;;;;;11.23;10.20;;;12.10;45.40;;;;;;4974917;28;20455;-64
2022/03/07 10:59:32;;;;;;;10.87;9.97;;;12.60;44.20;;;;;;4975102;28;20462;-64
2022/03/07 11:02:00;;;;;;;11.47;10.57;;;12.80;44.30;;;;;;4974781;28;20834;-65
2022/03/07 11:04:27;;;;;;;10.63;9.73;;;12.60;42.90;;;;;;4975151;28;20547;-64
2022/03/07 11:06:54;;;;;;;11.00;10.10;;;13.50;45.10;;;;;;4975024;28;20465;-64
2022/03/07 11:09:21;;;;;;;10.30;9.50;;;13.70;44.20;;;;;;4975102;28;20463;-66
2022/03/07 11:11:48;;;;;;;11.60;10.70;;;14.20;41.30;;;;;;4975052;28;20478;-64
2022/03/07 11:14:14;;;;;;;11.20;10.20;;;13.70;41.30;;;;;;4976002;28;20506;-64
2022/03/07 11:16:45;;;;;;;11.80;10.80;;;13.40;44.70;;;;;;4975033;28;20455;-64
2022/03/07 11:19:12;;;;;;;13.10;11.90;;;12.50;43.20;;;;;;4974701;28;20443;-65
2022/03/07 11:21:42;;;;;;;11.33;10.27;;;12.40;45.20;;;;;;4974592;28;20561;-65
2022/03/07 11:24:09;;;;;;;10.70;9.80;;;12.30;44.30;;;;;;4974465;28;20510;-64
2022/03/07 11:26:36;;;;;;;11.23;10.33;;;11.90;45.00;;;;;;4977002;28;21070;-65
2022/03/07 11:29:03;;;;;;;11.37;10.37;;;11.40;45.60;;;;;;4978908;28;20462;-65
2022/03/07 11:31:32;;;;;;;12.90;11.60;;;11.00;44.70;;;;;;4978232;28;20486;-64
2022/03/07 11:34:07;;;;;;;11.77;10.77;;;10.80;48.10;;;;;;4978237;28;20471;-66
2022/03/07 11:36:37;;;;;;;11.57;10.50;;;10.80;57.00;;;;;;4978345;28;20473;-66
2022/03/07 11:39:06;;;;;;;10.93;9.93;;;10.50;56.60;;;;;;4977675;28;20544;-66
2022/03/07 11:41:34;;;;;;;12.57;11.57;;;10.60;56.80;;;;;;4979291;28;20838;-66
2022/03/07 11:44:06;;;;;;;11.63;10.60;;;9.70;52.90;;;;;;4977848;28;20455;-64
2022/03/07 11:46:34;;;;;;;12.07;10.93;;;9.60;54.70;;;;;;4977322;28;20443;-66
2022/03/07 11:49:04;;;;;;;11.30;10.40;;;9.80;52.80;;;;;;4977899;28;20509;-65
2022/03/07 11:51:32;;;;;;;11.20;10.27;;;9.60;54.00;;;;;;4977337;28;20981;-64
2022/03/07 11:53:59;;;;;;;12.10;11.10;;;9.70;50.20;;;;;;4977645;28;20482;-64
2022/03/07 11:56:29;;;;;;;10.23;9.40;;;9.70;48.90;;;;;;4977403;28;20455;-64
2022/03/07 11:58:58;;;;;;;11.07;10.07;;;9.90;49.60;;;;;;4987435;28;20459;-66
2022/03/07 12:01:26;;;;;;;10.47;9.67;;;9.60;50.00;;;;;;4982717;28;20474;-65
2022/03/07 12:03:54;;;;;;;11.53;10.53;;;9.80;52.30;;;;;;4977784;28;20501;-65
2022/03/07 12:06:23;;;;;;;12.53;11.33;;;9.50;49.40;;;;;;4978054;28;20466;-65
2022/03/07 12:08:52;;;;;;;12.33;11.23;;;9.10;52.20;;;;;;4977859;28;20455;-65
2022/03/07 12:11:27;;;;;;;11.07;10.07;;;9.40;50.20;;;;;;4977127;28;20982;-65
2022/03/07 12:14:02;;;;;;;12.63;10.87;;;9.80;54.00;;;;;;4977765;28;20487;-65
2022/03/07 12:16:30;;;;;;;10.93;10.00;;;9.70;51.00;;;;;;4977344;28;20489;-65
2022/03/07 12:19:07;;;;;;;11.53;10.63;;;9.70;52.00;;;;;;4977139;28;20813;-64
2022/03/07 12:21:36;;;;;;;11.73;10.67;;;9.60;50.30;;;;;;4977368;28;20475;-65
2022/03/07 12:24:04;;;;;;;11.97;10.93;;;9.80;52.50;;;;;;4977328;28;20458;-66
2022/03/07 12:26:31;;;;;;;11.20;10.23;;;9.70;50.30;;;;;;4977303;28;20458;-65
2022/03/07 12:28:58;;;;;;;11.80;10.80;;;10.00;50.20;;;;;;4978224;28;20853;-65
2022/03/07 12:31:25;;;;;;;12.87;11.37;;;10.30;51.90;;;;;;4978236;28;20479;-65
2022/03/07 12:33:52;;;;;;;11.13;10.23;;;10.20;50.50;;;;;;4981908;28;20479;-64
2022/03/07 12:36:18;;;;;;;12.30;11.40;;;10.00;50.00;;;;;;4982702;28;20454;-65
2022/03/07 12:38:49;;;;;;;11.20;10.20;;;10.00;49.20;;;;;;4987066;28;20455;-65
2022/03/07 12:41:16;;;;;;;11.83;10.93;;;10.20;50.40;;;;;;4979306;28;20486;-64
2022/03/07 12:43:45;;;;;;;11.60;10.40;;;10.30;51.80;;;;;;4976761;28;20455;-64
2022/03/07 12:46:13;;;;;;;10.77;9.87;;;10.20;50.70;;;;;;4977275;28;20494;-65
2022/03/07 12:48:43;;;;;;;12.43;11.33;;;10.30;49.20;;;;;;4976550;28;20455;-65
2022/03/07 12:51:12;;;;;;;9.30;8.17;;;10.10;50.50;;;;;;4976802;28;20471;-65
2022/03/07 12:53:48;;;;;;;12.03;11.03;;;9.70;55.70;;;;;;4976760;28;20965;-64
2022/03/07 12:56:17;;;;;;;11.67;10.77;;;10.00;49.40;;;;;;4977816;28;20449;-64
2022/03/07 12:58:48;;;;;;;11.97;10.90;;;9.90;50.50;;;;;;4976662;28;20525;-64
2022/03/07 13:01:14;;;;;;;11.20;10.20;;;10.10;48.50;;;;;;4976671;28;20494;-65
2022/03/07 13:03:41;;;;;;;11.93;11.03;;;10.00;51.80;;;;;;4976240;28;20454;-65
2022/03/07 13:06:08;;;;;;;12.57;11.30;;;9.80;48.80;;;;;;4976312;28;20454;-66
2022/03/07 13:08:47;;;;;;;11.50;10.60;;;10.00;46.10;;;;;;4976382;28;20458;-65
2022/03/07 13:11:14;;;;;;;11.33;10.33;;;10.00;46.10;;;;;;4976170;28;20491;-66
2022/03/07 13:13:43;;;;;;;11.77;10.77;;;9.80;45.70;;;;;;4976039;28;20475;-66
2022/03/07 13:16:10;;;;;;;12.00;11.00;;;9.40;47.00;;;;;;4976175;28;20458;-66
2022/03/07 13:18:37;;;;;;;12.57;11.50;;;8.90;47.70;;;;;;4976179;28;20478;-65
2022/03/07 13:21:03;;;;;;;12.40;11.30;;;8.80;48.00;;;;;;4976015;28;20467;-65
2022/03/07 13:23:30;;;;;;;11.50;10.43;;;9.00;47.50;;;;;;4975511;28;20961;-66
2022/03/07 13:25:58;;;;;;;13.73;11.37;;;9.10;47.50;;;;;;4976018;28;20505;-65
2022/03/07 13:28:27;;;;;;;13.17;11.97;;;9.10;47.80;;;;;;4976157;28;20455;-65
2022/03/07 13:30:53;;;;;;;14.23;12.93;;;9.10;46.80;;;;;;4975963;28;20471;-65
2022/03/07 13:33:20;;;;;;;12.20;11.10;;;8.90;46.80;;;;;;4976241;28;20475;-67
2022/03/07 13:35:47;;;;;;;12.50;11.20;;;8.60;47.60;;;;;;4976388;28;20455;-66
2022/03/07 13:38:20;;;;;;;11.83;10.73;;;8.70;48.20;;;;;;4976404;28;20462;-66
2022/03/07 13:40:47;;;;;;;12.50;11.30;;;8.50;48.00;;;;;;4976118;28;20482;-65
2022/03/07 13:43:15;;;;;;;12.83;11.60;;;8.60;48.20;;;;;;4976339;28;20455;-66
2022/03/07 13:45:42;;;;;;;12.10;11.00;;;8.80;47.70;;;;;;4976058;28;20465;-66
2022/03/07 13:48:13;;;;;;;11.40;10.40;;;8.70;48.10;;;;;;4975621;28;20546;-66
2022/03/07 13:50:46;;;;;;;12.10;11.10;;;8.90;49.10;;;;;;4975122;28;20470;-66
2022/03/07 13:53:16;;;;;;;13.87;12.47;;;8.80;46.80;;;;;;4975511;28;20471;-65
2022/03/07 13:55:45;;;;;;;12.70;11.50;;;8.80;47.80;;;;;;4976603;28;20458;-66
2022/03/07 13:58:21;;;;;;;12.47;11.37;;;8.80;48.20;;;;;;4980267;28;20455;-66
2022/03/07 14:00:48;;;;;;;12.90;11.80;;;9.10;46.80;;;;;;4975625;28;20540;-66
2022/03/07 14:03:16;;;;;;;14.23;12.93;;;9.00;49.00;;;;;;4976508;28;20462;-66
2022/03/07 14:05:45;;;;;;;12.33;11.30;;;8.70;47.70;;;;;;4976715;28;20459;-65
2022/03/07 14:08:12;;;;;;;12.47;11.20;;;8.80;47.90;;;;;;4976300;28;20459;-66
2022/03/07 14:10:39;;;;;;;12.43;11.20;;;9.00;49.20;;;;;;4975618;28;20482;-66
2022/03/07 14:13:06;;;;;;;13.17;11.40;;;9.20;48.50;;;;;;4975800;28;20462;-66
2022/03/07 14:15:36;;;;;;;12.87;11.70;;;9.30;46.00;;;;;;4975931;28;20842;-66
2022/03/07 14:18:05;;;;;;;12.07;11.07;;;8.80;47.00;;;;;;4976755;28;20447;-66
2022/03/07 14:20:33;;;;;;;12.83;11.63;;;8.80;46.60;;;;;;4975948;28;20498;-65
2022/03/07 14:23:01;;;;;;;12.20;11.10;;;8.80;47.00;;;;;;4975371;28;20481;-65
2022/03/07 14:25:28;;;;;;;11.30;10.30;;;8.70;46.40;;;;;;4975583;28;20459;-66
2022/03/07 14:27:56;;;;;;;11.10;10.10;;;8.70;47.30;;;;;;4982449;28;20459;-66
2022/03/07 14:30:24;;;;;;;13.43;12.17;;;8.20;46.50;;;;;;4977240;28;20458;-65
2022/03/07 14:32:52;;;;;;;12.10;11.07;;;8.20;47.60;;;;;;4975468;28;20942;-66
2022/03/07 14:35:19;;;;;;;12.73;11.43;;;8.40;47.60;;;;;;4975729;28;20486;-65
2022/03/07 14:37:46;;;;;;;12.67;11.67;;;8.40;47.70;;;;;;4976638;28;20469;-65
2022/03/07 14:40:15;;;;;;;13.73;12.33;;;8.50;47.90;;;;;;4976101;28;20459;-65
2022/03/07 14:42:43;;;;;;;12.20;11.20;;;8.30;46.90;;;;;;4975968;28;20455;-64
2022/03/07 14:45:11;;;;;;;13.70;12.40;;;8.20;46.80;;;;;;4975702;28;20473;-65
2022/03/07 14:47:39;;;;;;;13.57;12.37;;;8.20;48.00;;;;;;4976173;28;20458;-65
2022/03/07 14:50:07;;;;;;;12.17;11.17;;;8.20;48.50;;;;;;4975417;28;20495;-64
2022/03/07 14:52:34;;;;;;;14.40;13.00;;;8.00;48.00;;;;;;4975354;28;20475;-65
2022/03/07 14:55:01;;;;;;;13.87;12.37;;;7.90;48.10;;;;;;4975325;28;20836;-65
2022/03/07 14:57:27;;;;;;;12.27;11.27;;;7.90;48.00;;;;;;4975142;28;20458;-65
2022/03/07 14:59:54;;;;;;;13.30;12.10;;;8.00;47.40;;;;;;4975528;28;20462;-65
2022/03/07 15:02:21;;;;;;;13.40;12.20;;;8.20;47.70;;;;;;4978413;28;21024;-65
2022/03/07 15:04:48;;;;;;;13.40;12.20;;;8.20;47.80;;;;;;4978932;28;20443;-65
2022/03/07 15:07:16;;;;;;;13.50;12.23;;;8.20;48.20;;;;;;4979304;28;20515;-64
2022/03/07 15:09:45;;;;;;;13.93;12.70;;;8.30;47.40;;;;;;4979335;28;20462;-63
2022/03/07 15:12:12;;;;;;;13.70;12.30;;;8.20;47.00;;;;;;4979437;28;20482;-64
2022/03/07 15:14:39;;;;;;;13.33;12.20;;;8.10;46.70;;;;;;4979291;28;20486;-64
2022/03/07 15:17:06;;;;;;;13.30;11.80;;;8.00;48.10;;;;;;4979143;28;20521;-65
2022/03/07 15:19:33;;;;;;;13.33;12.03;;;7.90;47.50;;;;;;4981027;28;20513;-64
2022/03/07 15:22:00;;;;;;;12.87;11.77;;;7.50;47.20;;;;;;4988720;28;20816;-66
2022/03/07 15:24:30;;;;;;;14.77;12.60;;;7.40;47.90;;;;;;4984068;28;20799;-64
2022/03/07 15:26:57;;;;;;;12.97;11.77;;;7.40;48.60;;;;;;4979344;28;20969;-64
2022/03/07 15:29:24;;;;;;;13.00;11.90;;;7.30;49.40;;;;;;4978618;28;20458;-65
2022/03/07 15:31:50;;;;;;;13.40;12.10;;;7.50;49.30;;;;;;4978448;28;20479;-66
2022/03/07 15:34:17;;;;;;;13.47;12.23;;;7.50;48.20;;;;;;4980274;28;20483;-65
2022/03/07 15:36:44;;;;;;;13.30;12.00;;;7.30;48.70;;;;;;4982649;28;20461;-64
2022/03/07 15:39:13;;;;;;;13.90;12.37;;;7.20;48.70;;;;;;4979511;28;20469;-66
2022/03/07 15:41:42;;;;;;;13.17;11.90;;;7.10;48.70;;;;;;4978159;28;20525;-67
2022/03/07 15:44:10;;;;;;;14.87;13.43;;;7.00;48.70;;;;;;4978771;28;20450;-65
2022/03/07 15:46:37;;;;;;;14.13;12.80;;;6.80;48.60;;;;;;4978088;28;20451;-66
2022/03/07 15:49:04;;;;;;;15.83;14.23;;;6.80;49.10;;;;;;4978247;28;20458;-65
2022/03/07 15:51:32;;;;;;;13.43;12.23;;;6.80;49.10;;;;;;4977799;28;20478;-65
2022/03/07 15:54:00;;;;;;;14.60;13.13;;;6.80;49.50;;;;;;4978024;28;20502;-65
2022/03/07 15:56:27;;;;;;;13.73;12.40;;;6.50;48.60;;;;;;4978109;28;20582;-64
2022/03/07 15:58:55;;;;;;;14.37;12.97;;;6.40;49.10;;;;;;4978045;28;20556;-65
2022/03/07 16:01:22;;;;;;;13.50;12.17;;;6.20;49.40;;;;;;4977675;28;20489;-66
2022/03/07 16:03:49;;;;;;;14.00;12.70;;;6.10;49.60;;;;;;4977994;28;20458;-65
2022/03/07 16:06:17;;;;;;;17.70;12.23;;;6.00;49.90;;;;;;4977728;28;20947;-65
2022/03/07 16:08:43;;;;;;;16.03;14.53;;;6.00;50.00;;;;;;4978071;28;20515;-65
2022/03/07 16:11:10;;;;;;;15.67;14.10;;;6.00;50.30;;;;;;4978264;28;20474;-66
2022/03/07 16:13:37;;;;;;;15.50;14.07;;;5.90;50.20;;;;;;4977670;28;20454;-65
2022/03/07 16:16:06;;;;;;;19.63;17.53;;;5.90;50.50;;;;;;4977925;28;20464;-65
2022/03/07 16:18:34;;;;;;;14.73;13.33;;;5.80;50.60;;;;;;4978528;28;20542;-65
2022/03/07 16:21:01;;;;;;;14.30;12.90;;;5.80;50.70;;;;;;4977830;28;21009;-65
2022/03/07 16:23:27;;;;;;;15.77;14.20;;;5.70;50.50;;;;;;4977835;28;20450;-64
2022/03/07 16:25:56;;;;;;;14.63;13.23;;;5.60;50.40;;;;;;4978543;28;20455;-66
2022/03/07 16:28:24;;;;;;;15.10;13.70;;;5.50;50.70;;;;;;4978092;28;20455;-65
2022/03/07 16:30:54;;;;;;;13.97;12.57;;;5.50;50.70;;;;;;4978316;28;20482;-66
2022/03/07 16:33:23;;;;;;;16.00;14.47;;;5.40;50.40;;;;;;4978140;28;20579;-66
2022/03/07 16:35:53;;;;;;;16.33;14.83;;;5.30;50.60;;;;;;4977233;28;21019;-64
2022/03/07 16:38:20;;;;;;;15.07;13.53;;;5.20;50.80;;;;;;4977512;28;20465;-69
2022/03/07 16:40:49;;;;;;;14.73;13.37;;;5.10;50.80;;;;;;4977291;28;20549;-66
2022/03/07 16:43:16;;;;;;;15.60;13.97;;;5.10;51.10;;;;;;4977838;28;20458;-64
2022/03/07 16:45:43;;;;;;;15.77;14.27;;;5.10;51.80;;;;;;4977656;28;20507;-68
2022/03/07 16:48:10;;;;;;;15.07;13.67;;;5.20;52.10;;;;;;4980201;28;20470;-65
2022/03/07 16:50:39;;;;;;;18.93;13.30;;;5.20;51.90;;;;;;4980750;28;20475;-65
2022/03/07 16:53:07;;;;;;;16.27;14.67;;;5.20;52.30;;;;;;4981128;28;20451;-65
2022/03/07 16:55:35;;;;;;;15.37;13.77;;;5.30;51.90;;;;;;4981680;28;20479;-66
2022/03/07 16:58:01;;;;;;;16.83;15.23;;;5.30;51.90;;;;;;4978258;28;20461;-64
2022/03/07 17:00:28;;;;;;;15.90;14.20;;;5.40;52.50;;;;;;4976782;28;20824;-65
2022/03/07 17:02:55;;;;;;;16.63;14.87;;;5.40;52.30;;;;;;4977670;28;20440;-64
2022/03/07 17:05:22;;;;;;;16.70;15.00;;;5.40;52.30;;;;;;4978962;28;20505;-67
2022/03/07 17:07:50;;;;;;;17.70;15.63;;;5.40;52.60;;;;;;4978987;28;20485;-67
2022/03/07 17:10:17;;;;;;;22.83;18.13;;;5.50;52.70;;;;;;4977244;28;20530;-65
2022/03/07 17:12:44;;;;;;;18.43;16.63;;;5.40;52.70;;;;;;4977074;28;20455;-66
2022/03/07 17:15:11;;;;;;;18.03;16.13;;;5.30;52.30;;;;;;4977013;28;20485;-66
2022/03/07 17:17:38;;;;;;;16.73;14.97;;;5.20;53.10;;;;;;4976805;28;20461;-67
2022/03/07 17:20:07;;;;;;;16.77;14.90;;;5.30;53.30;;;;;;4976788;28;20458;-66
2022/03/07 17:22:34;;;;;;;19.23;16.00;;;5.10;53.00;;;;;;4976737;28;20479;-66
2022/03/07 17:25:03;;;;;;;18.70;16.90;;;5.10;53.00;;;;;;4976508;28;20451;-66
2022/03/07 17:27:30;;;;;;;16.60;15.00;;;5.00;53.30;;;;;;4975975;28;20554;-65
2022/03/07 17:29:57;;;;;;;18.77;16.97;;;4.90;53.40;;;;;;4976034;28;20459;-66
2022/03/07 17:32:24;;;;;;;18.00;16.13;;;4.90;53.80;;;;;;4977539;28;20494;-66
2022/03/07 17:34:50;;;;;;;19.40;17.47;;;4.70;53.50;;;;;;4976489;28;20471;-66
2022/03/07 17:37:17;;;;;;;17.87;16.10;;;4.70;53.90;;;;;;4975678;28;20466;-65
2022/03/07 17:39:44;;;;;;;18.40;16.70;;;4.70;53.70;;;;;;4977081;28;20462;-64